Página principal
METAR-TAF:

METAR-TAF

Aeroportos :

Kuwait, Kuwait

Aeroporto Internacional do Kuwait

latitude: 29-13N, longitude: 047-59E, altura: 55 m

Observação actual do tempo

O boletim foi feito há 36 minutos, às 12:59 UTC
Vento 9 kt de nor-nordeste
Temperatura 22°C
Humidade 65%
Pressão 1009 hPa
Visibilidade: 8000 m

METAR: OKBK 251259Z 02009KT 8000 NSC 22/15 Q1009 NOSIG

Hora: 16:35 (13:35 UTC)

Previsão

O boletim foi feito há 2 horas e 50 minutos, às 10:45 UTC
Previsão válida de 25 às 12 UTC a 26 às 18 UTC
Vento 8 kt de nor-nordeste com rajadas de 18 kt
Visibilidade: 6000 m
Nuvens dispersasa uma altura de 4000 ft
Nuvens fragmentadasa uma altura de 8000 ft
Tornando-se
de 25 às 18 UTC a 25 às 20 UTC
Vento 8 kt de nor-noroeste

TAF: OKBK 251045Z 2512/2618 03008G18KT 6000 SCT040 BKN080 BECMG 2518/2520 34008KT NSC

Observações e previsões do tempo de mais de 4000 aeroportos (mensagens METAR e TAF).

As estações disponíveis são os pontos amarelos e vermelhos sobre o mapa.

Mova o rato sobre o mapa para ver o nome da estação.

Depois clique no ponto para visualizar as observações e previsões meteorológicas.

Para alterar o mapa : clique nos botões verdes com uma cruz preta para aumentar o zoom; no botão verde com uma pitada de zoom; ou nas setas verdes para mapas adjacentes.


METAR-TAF: